createdAt,value
2023-01-23T00:01:43.132Z,0.57
2023-01-23T00:06:04.765Z,0.70
2023-01-23T00:10:17.591Z,0.88
2023-01-23T00:14:30.145Z,0.60
2023-01-23T00:18:42.569Z,0.85
2023-01-23T00:22:55.264Z,0.73
2023-01-23T00:27:07.665Z,0.52
2023-01-23T00:31:23.279Z,0.47
2023-01-23T00:35:35.892Z,0.80
2023-01-23T00:39:51.115Z,0.77
2023-01-23T00:44:03.560Z,0.82
2023-01-23T00:48:16.129Z,0.90
2023-01-23T00:52:29.556Z,0.85
2023-01-23T00:56:41.958Z,0.77
2023-01-23T01:00:54.533Z,0.80
2023-01-23T01:05:07.202Z,0.80
2023-01-23T01:09:19.633Z,0.60
2023-01-23T01:13:32.240Z,0.65
2023-01-23T01:17:44.564Z,0.50
2023-01-23T01:21:56.967Z,0.73
2023-01-23T01:26:10.348Z,0.65
2023-01-23T01:30:23.030Z,0.50
2023-01-23T01:34:35.609Z,0.82
2023-01-23T01:38:48.829Z,0.60
2023-01-23T01:43:07.207Z,0.70
2023-01-23T01:47:19.619Z,0.60
2023-01-23T01:51:46.204Z,0.70
2023-01-23T01:55:59.288Z,0.35
2023-01-23T02:00:17.955Z,0.50
2023-01-23T02:04:36.622Z,0.53
2023-01-23T02:09:07.666Z,0.60
2023-01-23T02:13:39.601Z,0.40
2023-01-23T02:17:55.154Z,0.50
2023-01-23T02:22:27.698Z,0.50
2023-01-23T02:26:45.896Z,0.68
2023-01-23T02:31:00.329Z,0.40
2023-01-23T02:35:20.296Z,0.50
2023-01-23T02:39:33.502Z,0.60
2023-01-23T02:43:49.388Z,0.40
2023-01-23T02:48:02.214Z,0.50
2023-01-23T02:52:14.746Z,0.40
2023-01-23T02:56:27.105Z,0.38
2023-01-23T03:00:39.513Z,0.50
2023-01-23T03:04:51.951Z,0.50
2023-01-23T03:09:11.080Z,0.43
2023-01-23T03:13:24.568Z,0.50
2023-01-23T03:17:37.189Z,0.50
2023-01-23T03:21:50.487Z,0.50
2023-01-23T03:26:03.242Z,0.38
2023-01-23T03:30:17.474Z,0.60
2023-01-23T03:34:31.720Z,0.47
2023-01-23T03:39:04.385Z,0.43
2023-01-23T03:43:17.909Z,0.50
2023-01-23T03:47:34.274Z,0.40
2023-01-23T03:51:46.797Z,0.40
2023-01-23T03:55:59.237Z,0.38
2023-01-23T04:00:14.047Z,0.60
2023-01-23T04:04:29.335Z,0.73
2023-01-23T04:08:41.705Z,0.68
2023-01-23T04:12:55.031Z,0.70
2023-01-23T04:17:09.149Z,0.80
2023-01-23T04:21:22.754Z,0.47
2023-01-23T04:25:35.224Z,0.70
2023-01-23T04:29:49.927Z,0.60
2023-01-23T04:34:03.771Z,0.70
2023-01-23T04:38:16.171Z,0.73
2023-01-23T04:42:28.762Z,0.55
2023-01-23T04:46:54.305Z,0.70
2023-01-23T04:51:07.639Z,0.70
2023-01-23T04:55:20.703Z,1.10
2023-01-23T04:59:33.117Z,1.40
2023-01-23T05:03:46.918Z,1.00
2023-01-23T05:08:01.342Z,1.10
2023-01-23T05:12:15.024Z,1.10
2023-01-23T05:16:29.177Z,1.55
2023-01-23T05:21:07.550Z,0.98
2023-01-23T05:25:25.665Z,0.93
2023-01-23T05:29:40.322Z,1.00
2023-01-23T05:34:00.787Z,1.05
2023-01-23T05:38:13.811Z,1.27
2023-01-23T05:42:28.375Z,1.73
2023-01-23T05:47:09.650Z,1.77
2023-01-23T05:51:23.647Z,2.20
2023-01-23T05:55:39.953Z,2.95
2023-01-23T05:59:54.661Z,3.78
2023-01-23T06:04:27.075Z,4.05
2023-01-23T06:09:00.846Z,3.75
2023-01-23T06:13:15.722Z,4.20
2023-01-23T06:17:28.130Z,3.67
2023-01-23T06:21:40.662Z,3.90
2023-01-23T06:25:53.094Z,3.83
2023-01-23T06:30:06.605Z,3.50
2023-01-23T06:34:24.843Z,3.72
2023-01-23T06:38:42.294Z,4.25
2023-01-23T06:42:57.858Z,6.97
2023-01-23T06:47:10.299Z,3.72
2023-01-23T06:51:23.842Z,4.47
2023-01-23T06:55:36.550Z,8.30
2023-01-23T06:59:52.547Z,4.75
2023-01-23T07:04:06.409Z,9.27
2023-01-23T07:08:19.486Z,10.55
2023-01-23T07:12:32.715Z,8.80
2023-01-23T07:16:45.370Z,7.90
2023-01-23T07:20:57.903Z,9.25
2023-01-23T07:25:10.511Z,9.20
2023-01-23T07:29:22.859Z,8.80
2023-01-23T07:33:35.180Z,8.55
2023-01-23T07:37:48.004Z,10.35
2023-01-23T07:42:03.142Z,17.67
2023-01-23T07:46:15.824Z,17.88
2023-01-23T07:50:28.340Z,12.32
2023-01-23T07:54:40.681Z,12.45
2023-01-23T07:58:54.313Z,13.18
2023-01-23T08:03:08.461Z,13.32
2023-01-23T08:07:21.959Z,13.63
2023-01-23T08:11:34.573Z,12.40
2023-01-23T08:15:46.906Z,11.15
2023-01-23T08:19:59.370Z,9.13
2023-01-23T08:24:13.448Z,6.10
2023-01-23T08:28:26.840Z,6.40
2023-01-23T08:32:39.227Z,3.67
2023-01-23T08:36:51.989Z,4.85
2023-01-23T08:41:04.912Z,4.38
2023-01-23T08:45:17.318Z,5.25
2023-01-23T08:49:29.666Z,4.30
2023-01-23T08:53:42.510Z,4.40
2023-01-23T08:57:54.917Z,5.90
2023-01-23T09:02:07.406Z,11.25
2023-01-23T09:06:22.956Z,11.65
2023-01-23T09:10:35.417Z,11.10
2023-01-23T09:14:48.291Z,12.02
2023-01-23T09:19:00.710Z,11.35
2023-01-23T09:23:13.108Z,11.52
2023-01-23T09:27:25.745Z,11.57
2023-01-23T09:31:38.459Z,12.02
2023-01-23T09:35:54.128Z,16.92
2023-01-23T09:40:09.043Z,14.30
2023-01-23T09:44:31.882Z,13.80
2023-01-23T09:48:47.712Z,8.95
2023-01-23T09:53:06.319Z,11.82
2023-01-23T09:57:26.491Z,14.30
2023-01-23T10:01:39.229Z,12.93
2023-01-23T10:06:16.839Z,11.90
2023-01-23T10:10:47.986Z,10.50
2023-01-23T10:15:37.704Z,9.98
2023-01-23T10:20:03.394Z,8.40
2023-01-23T10:24:49.984Z,8.30
2023-01-23T10:29:22.555Z,8.40
2023-01-23T10:33:49.554Z,8.13
2023-01-23T10:38:12.711Z,6.82
2023-01-23T10:42:27.753Z,6.10
2023-01-23T10:46:49.776Z,6.28
2023-01-23T10:51:02.367Z,10.50
2023-01-23T10:55:20.693Z,14.48
2023-01-23T10:59:41.640Z,16.20
2023-01-23T11:03:54.476Z,11.95
2023-01-23T11:08:27.706Z,8.38
2023-01-23T11:12:51.877Z,11.95
2023-01-23T11:17:19.104Z,9.85
2023-01-23T11:21:56.474Z,8.57
2023-01-23T11:26:31.746Z,8.60
2023-01-23T11:31:15.775Z,6.68
2023-01-23T11:35:57.884Z,8.43
2023-01-23T11:40:28.947Z,12.00
2023-01-23T11:44:46.433Z,8.10
2023-01-23T11:49:05.085Z,12.07
2023-01-23T11:53:43.119Z,10.00
2023-01-23T11:58:05.218Z,4.40
2023-01-23T12:02:43.800Z,4.75
2023-01-23T12:07:22.522Z,3.35
2023-01-23T12:11:46.608Z,2.20
2023-01-23T12:16:17.527Z,2.55
2023-01-23T12:20:39.800Z,2.20
2023-01-23T12:25:31.876Z,2.60
2023-01-23T12:30:12.612Z,1.40
2023-01-23T12:34:31.093Z,2.05
2023-01-23T12:39:10.018Z,1.20
2023-01-23T12:43:54.969Z,0.82
2023-01-23T12:48:14.405Z,1.08
2023-01-23T12:52:44.041Z,1.52
2023-01-23T12:56:56.880Z,1.60
2023-01-23T13:01:46.894Z,1.90
2023-01-23T13:06:01.955Z,2.60
2023-01-23T13:10:57.713Z,3.80
2023-01-23T13:15:38.767Z,3.03
2023-01-23T13:20:12.188Z,3.20
2023-01-23T13:24:52.082Z,3.40
2023-01-23T13:29:25.801Z,3.80
2023-01-23T13:33:40.197Z,3.83
2023-01-23T13:37:52.579Z,4.28
2023-01-23T13:42:10.683Z,5.55
2023-01-23T14:24:05.393Z,2.10
2023-01-23T14:28:19.243Z,3.65
2023-01-23T14:32:34.425Z,2.80
2023-01-23T14:36:52.733Z,3.97
2023-01-23T14:41:07.688Z,3.67
2023-01-23T14:45:20.377Z,3.58
2023-01-23T14:49:41.529Z,4.65
2023-01-23T14:54:02.801Z,5.93
2023-01-23T14:58:25.613Z,6.53
2023-01-23T15:02:38.040Z,6.88
2023-01-23T15:06:56.932Z,9.85
2023-01-23T15:11:12.340Z,9.10
2023-01-23T15:15:26.788Z,11.45
2023-01-23T15:19:43.048Z,11.27
2023-01-23T15:24:10.537Z,9.85
2023-01-23T15:28:39.857Z,9.48
2023-01-23T15:32:52.258Z,10.85
2023-01-23T15:37:24.664Z,10.65
2023-01-23T15:42:03.594Z,9.65
2023-01-23T15:46:17.968Z,10.05
2023-01-23T15:50:30.773Z,10.80
2023-01-23T15:54:43.305Z,13.23
2023-01-23T15:58:56.174Z,27.38
2023-01-23T16:03:08.695Z,28.08
2023-01-23T16:07:25.783Z,32.38
2023-01-23T16:11:39.123Z,31.67
2023-01-23T16:15:52.834Z,30.88
2023-01-23T16:20:07.251Z,27.63
2023-01-23T16:24:22.622Z,28.85
2023-01-23T16:28:35.063Z,26.67
2023-01-23T16:32:47.491Z,23.25
2023-01-23T16:37:01.309Z,24.10
2023-01-23T16:41:14.076Z,23.35
2023-01-23T16:45:31.473Z,24.00
2023-01-23T16:49:52.090Z,25.42
2023-01-23T16:54:18.296Z,25.80
2023-01-23T16:58:41.365Z,28.85
2023-01-23T17:02:56.525Z,29.42
2023-01-23T17:07:19.415Z,35.55
2023-01-23T17:11:39.058Z,35.35
2023-01-23T17:15:54.772Z,39.40
2023-01-23T17:20:07.853Z,38.00
2023-01-23T17:24:20.310Z,39.33
2023-01-23T17:28:32.929Z,43.17
2023-01-23T17:32:50.402Z,48.78
2023-01-23T17:37:02.985Z,44.17
2023-01-23T17:41:16.851Z,41.60
2023-01-23T17:45:29.382Z,43.40
2023-01-23T17:50:01.578Z,43.15
2023-01-23T17:54:19.826Z,33.25
2023-01-23T17:58:34.508Z,39.22
2023-01-23T18:02:52.529Z,37.65
2023-01-23T18:07:08.188Z,42.58
2023-01-23T18:11:24.845Z,37.63
2023-01-23T18:16:00.575Z,41.58
2023-01-23T18:20:23.768Z,41.38
2023-01-23T18:24:38.647Z,41.60
2023-01-23T18:29:13.791Z,42.72
2023-01-23T18:34:09.288Z,43.47
2023-01-23T18:38:37.131Z,46.47
2023-01-23T18:43:20.406Z,48.50
2023-01-23T18:47:33.107Z,42.33
2023-01-23T18:52:08.620Z,40.17
2023-01-23T18:56:48.792Z,37.58
2023-01-23T19:01:27.083Z,35.23
2023-01-23T19:05:44.736Z,41.83
2023-01-23T19:09:57.742Z,36.67
2023-01-23T19:14:53.741Z,33.47
2023-01-23T19:19:28.487Z,35.50
2023-01-23T19:24:01.126Z,36.33
2023-01-23T19:28:13.981Z,37.28
2023-01-23T19:32:27.122Z,39.17
2023-01-23T19:36:39.857Z,39.70
2023-01-23T19:40:53.554Z,41.60
2023-01-23T19:45:06.608Z,41.40
2023-01-23T19:49:19.359Z,39.80
2023-01-23T19:53:33.281Z,35.03
2023-01-23T19:57:45.936Z,31.02
2023-01-23T20:01:58.522Z,27.02
2023-01-23T20:06:13.951Z,27.15
2023-01-23T20:10:27.410Z,26.30
2023-01-23T20:14:40.256Z,25.13
2023-01-23T20:18:54.723Z,25.00
2023-01-23T20:23:07.286Z,24.88
2023-01-23T20:27:20.576Z,23.58
2023-01-23T20:31:33.337Z,25.35
2023-01-23T20:35:49.137Z,26.67
2023-01-23T20:40:01.609Z,28.58
2023-01-23T20:44:15.498Z,30.77
2023-01-23T20:48:34.343Z,38.80
2023-01-23T20:53:05.357Z,70.78
2023-01-23T20:57:17.917Z,38.00
2023-01-23T21:01:52.226Z,32.35
2023-01-23T21:06:04.870Z,27.58
2023-01-23T21:10:17.555Z,18.67
2023-01-23T21:14:30.157Z,15.00
2023-01-23T21:18:46.562Z,14.80
2023-01-23T21:22:58.986Z,14.18
2023-01-23T21:27:11.397Z,13.95
2023-01-23T21:31:25.432Z,14.45
2023-01-23T21:35:37.817Z,12.18
2023-01-23T21:39:50.665Z,7.20
2023-01-23T21:44:03.054Z,6.25
2023-01-23T21:48:15.457Z,6.38
2023-01-23T21:52:27.871Z,4.30
2023-01-23T21:56:41.067Z,3.90
2023-01-23T22:01:20.146Z,3.90
2023-01-23T22:05:36.528Z,2.80
2023-01-23T22:09:48.916Z,2.55
2023-01-23T22:14:01.656Z,1.92
2023-01-23T22:18:14.059Z,2.10
2023-01-23T22:22:26.758Z,1.90
2023-01-23T22:26:39.205Z,1.90
2023-01-23T22:30:51.657Z,2.13
2023-01-23T22:35:04.232Z,2.17
2023-01-23T22:39:16.728Z,3.38
2023-01-23T22:43:29.628Z,1.38
2023-01-23T22:47:42.152Z,1.55
2023-01-23T22:51:54.647Z,1.20
2023-01-23T22:56:07.936Z,0.88
2023-01-23T23:00:20.966Z,1.20
2023-01-23T23:04:34.803Z,0.95
2023-01-23T23:08:51.383Z,0.70
2023-01-23T23:13:04.120Z,0.90
2023-01-23T23:17:16.921Z,0.90
2023-01-23T23:21:32.964Z,1.15
2023-01-23T23:25:45.268Z,1.13
2023-01-23T23:30:00.428Z,0.90
2023-01-23T23:34:12.795Z,1.33
2023-01-23T23:38:25.363Z,1.27
2023-01-23T23:42:38.109Z,1.60
2023-01-23T23:46:50.372Z,1.60
2023-01-23T23:51:05.392Z,1.30
2023-01-23T23:55:18.080Z,1.30
2023-01-23T23:59:30.554Z,1.30
